Time;durP1;ratioP1;P1;durP2;ratioP2;P2;SDS_P1;SDS_P2;PMS_P1;PMS_P2;Temp;Humidity;BMP_temperature;BMP_pressure;BME280_temperature;BME280_humidity;BME280_pressure;Samples;Min_cycle;Max_cycle;Signal;HPM_P1;HPM_P2
2022/11/26 00:02:16;;;;;;;4.50;3.10;;;5.70;99.90;;;;;;5061623;28;20267;-77
2022/11/26 00:05:02;;;;;;;10.32;4.38;;;5.60;99.90;;;;;;5070804;28;20212;-77
2022/11/26 00:07:54;;;;;;;10.50;4.57;;;5.70;99.90;;;;;;5071660;28;20311;-76
2022/11/26 00:10:39;;;;;;;12.30;5.68;;;5.80;99.90;;;;;;5063172;28;20710;-77
2022/11/26 00:13:27;;;;;;;15.10;5.65;;;5.80;99.90;;;;;;5072144;28;20254;-77
2022/11/26 00:16:14;;;;;;;6.50;4.55;;;5.90;99.90;;;;;;5064602;28;20281;-76
2022/11/26 00:19:00;;;;;;;5.78;4.50;;;5.80;99.90;;;;;;5066219;28;20302;-78
2022/11/26 00:21:47;;;;;;;5.38;4.07;;;5.80;99.90;;;;;;5070590;28;20454;-77
2022/11/26 00:24:32;;;;;;;9.40;3.88;;;5.80;99.90;;;;;;5083693;28;20295;-78
2022/11/26 00:27:18;;;;;;;6.30;4.25;;;5.80;99.90;;;;;;5071836;28;20219;-78
2022/11/26 00:30:13;;;;;;;7.35;4.82;;;5.90;99.90;;;;;;5073600;28;20207;-77
2022/11/26 00:32:59;;;;;;;13.48;5.50;;;6.00;99.90;;;;;;5078668;28;20254;-78
2022/11/26 00:35:45;;;;;;;5.75;4.03;;;5.90;99.90;;;;;;5080946;28;20239;-78
2022/11/26 00:38:33;;;;;;;6.07;3.60;;;5.70;99.90;;;;;;5073741;28;20220;-76
2022/11/26 00:41:21;;;;;;;8.40;4.03;;;5.60;99.90;;;;;;5076979;28;20239;-77
2022/11/26 00:44:16;;;;;;;13.07;4.68;;;5.50;99.90;;;;;;5079847;28;20207;-78
2022/11/26 00:47:02;;;;;;;9.10;4.45;;;5.50;99.90;;;;;;5068194;28;20225;-77
2022/11/26 00:49:47;;;;;;;7.90;4.13;;;5.60;99.90;;;;;;5076123;28;20243;-76
2022/11/26 00:52:35;;;;;;;5.78;4.45;;;5.80;99.90;;;;;;5084661;28;20455;-78
2022/11/26 00:55:28;;;;;;;8.40;4.45;;;5.90;99.90;;;;;;5066358;28;20203;-76
2022/11/26 00:58:22;;;;;;;12.40;4.93;;;6.10;99.90;;;;;;5069903;28;20224;-77
2022/11/26 01:01:12;;;;;;;12.40;4.90;;;6.10;99.90;;;;;;5074115;28;20600;-78
2022/11/26 01:03:58;;;;;;;12.20;5.65;;;6.00;99.90;;;;;;5085120;28;20682;-78
2022/11/26 01:06:45;;;;;;;8.30;5.13;;;6.10;99.90;;;;;;5065134;28;20301;-77
2022/11/26 01:09:31;;;;;;;8.10;4.80;;;6.10;99.90;;;;;;5082225;28;20290;-77
2022/11/26 01:12:18;;;;;;;13.30;6.50;;;6.20;99.90;;;;;;5071253;28;20208;-77
2022/11/26 01:15:04;;;;;;;14.00;7.40;;;6.20;99.90;;;;;;5077000;28;20430;-77
2022/11/26 01:17:50;;;;;;;15.40;7.72;;;6.30;99.90;;;;;;5078778;28;20231;-74
2022/11/26 01:20:36;;;;;;;14.43;7.63;;;6.10;99.90;;;;;;5085814;28;20208;-78
2022/11/26 01:23:21;;;;;;;17.63;8.07;;;6.00;99.90;;;;;;5067883;28;20416;-76
2022/11/26 01:26:13;;;;;;;18.83;7.40;;;6.00;99.90;;;;;;5075629;28;20878;-77
2022/11/26 01:29:00;;;;;;;16.45;9.15;;;5.90;99.90;;;;;;5075279;28;20216;-78
2022/11/26 01:31:46;;;;;;;12.20;6.80;;;5.90;99.90;;;;;;5080727;28;20283;-77
2022/11/26 01:34:31;;;;;;;16.65;8.70;;;5.90;99.90;;;;;;5083160;28;20198;-77
2022/11/26 01:37:17;;;;;;;18.67;8.45;;;6.00;99.90;;;;;;5060599;28;20282;-77
2022/11/26 01:40:03;;;;;;;17.65;11.15;;;5.90;99.90;;;;;;5066900;28;20237;-77
2022/11/26 01:42:51;;;;;;;21.10;11.55;;;5.90;99.90;;;;;;5066848;28;20208;-77
2022/11/26 01:45:38;;;;;;;15.20;8.40;;;5.90;99.90;;;;;;5067319;28;20259;-76
2022/11/26 01:48:28;;;;;;;16.48;7.63;;;5.90;99.90;;;;;;5074210;28;20304;-76
2022/11/26 01:51:18;;;;;;;10.73;7.30;;;5.80;99.90;;;;;;5067868;28;20212;-76
2022/11/26 01:54:03;;;;;;;11.68;7.25;;;5.80;99.90;;;;;;5070028;28;20203;-76
2022/11/26 01:56:52;;;;;;;11.68;6.78;;;5.90;99.90;;;;;;5067109;28;20209;-77
2022/11/26 01:59:41;;;;;;;10.38;6.03;;;5.90;99.90;;;;;;5059298;28;20209;-77
2022/11/26 02:02:29;;;;;;;12.23;7.22;;;6.00;99.90;;;;;;5068078;28;20571;-77
2022/11/26 02:05:20;;;;;;;14.32;8.45;;;5.90;99.90;;;;;;5069158;28;20294;-76
2022/11/26 02:08:06;;;;;;;13.73;7.30;;;6.00;99.90;;;;;;5067530;28;20228;-77
2022/11/26 02:10:52;;;;;;;16.08;6.53;;;6.00;99.90;;;;;;5066267;28;20313;-77
2022/11/26 02:13:38;;;;;;;17.73;7.03;;;6.00;99.90;;;;;;5071735;28;20619;-77
2022/11/26 02:16:59;;;;;;;10.27;6.68;;;6.00;99.90;;;;;;5081299;28;20246;-77
2022/11/26 02:20:24;;;;;;;10.80;6.05;;;6.00;99.90;;;;;;5054201;28;20201;-77
2022/11/26 02:23:38;;;;;;;13.50;7.90;;;6.00;99.90;;;;;;5067661;28;20204;-77
2022/11/26 02:26:56;;;;;;;14.85;6.10;;;6.00;99.90;;;;;;5070149;28;20208;-76
2022/11/26 02:30:06;;;;;;;10.45;6.95;;;6.10;99.90;;;;;;5069283;28;20201;-77
2022/11/26 02:33:00;;;;;;;15.32;9.55;;;6.30;99.90;;;;;;5064307;28;20872;-77
2022/11/26 02:35:47;;;;;;;15.40;9.15;;;6.40;99.90;;;;;;5066474;28;20681;-76
2022/11/26 02:38:36;;;;;;;12.98;9.23;;;6.40;99.90;;;;;;5057955;28;20337;-77
2022/11/26 02:41:21;;;;;;;17.38;10.20;;;6.40;99.90;;;;;;5066400;28;20333;-76
2022/11/26 02:44:07;;;;;;;13.45;8.27;;;6.40;99.90;;;;;;5065890;28;20236;-76
2022/11/26 02:47:01;;;;;;;13.90;8.43;;;6.40;99.90;;;;;;5067233;28;20258;-76
2022/11/26 02:49:49;;;;;;;21.43;10.40;;;6.40;99.90;;;;;;5069816;28;20814;-76
2022/11/26 02:52:36;;;;;;;15.50;9.57;;;6.40;99.90;;;;;;5066426;28;20454;-77
2022/11/26 02:55:28;;;;;;;19.93;11.07;;;6.50;99.90;;;;;;5065638;28;20525;-77
2022/11/26 02:58:13;;;;;;;18.20;10.03;;;6.50;99.90;;;;;;5059903;28;21039;-77
2022/11/26 03:01:02;;;;;;;26.90;15.13;;;6.40;99.90;;;;;;5068279;28;20442;-77
2022/11/26 03:03:52;;;;;;;23.13;16.38;;;6.40;99.90;;;;;;5070804;28;20441;-77
2022/11/26 03:06:39;;;;;;;25.77;15.60;;;6.40;99.90;;;;;;5064660;28;20751;-76
2022/11/26 03:09:24;;;;;;;17.90;13.70;;;6.20;99.90;;;;;;5062077;28;20203;-77
2022/11/26 03:12:10;;;;;;;20.90;13.02;;;6.30;99.90;;;;;;5071679;28;20638;-76
2022/11/26 03:14:56;;;;;;;23.40;13.35;;;6.30;99.90;;;;;;5065543;28;20212;-77
2022/11/26 03:17:42;;;;;;;20.92;13.45;;;6.40;99.90;;;;;;5064252;28;20301;-75
2022/11/26 03:20:29;;;;;;;21.80;14.85;;;6.50;99.90;;;;;;5066214;28;20201;-75
2022/11/26 03:23:14;;;;;;;18.50;12.27;;;6.50;99.90;;;;;;5068050;28;20631;-75
2022/11/26 03:26:00;;;;;;;18.67;12.07;;;6.50;99.90;;;;;;5066533;28;20199;-77
2022/11/26 03:28:46;;;;;;;16.20;11.55;;;6.40;99.90;;;;;;5063064;28;20315;-76
2022/11/26 03:31:31;;;;;;;16.10;11.67;;;6.40;99.90;;;;;;5060278;28;20196;-77
2022/11/26 03:34:17;;;;;;;18.45;12.35;;;6.30;99.90;;;;;;5062018;28;20434;-77
2022/11/26 03:37:04;;;;;;;17.67;10.88;;;6.20;99.90;;;;;;5066294;28;20281;-77
2022/11/26 03:39:49;;;;;;;17.35;10.43;;;6.20;99.90;;;;;;5064759;28;20220;-77
2022/11/26 03:42:35;;;;;;;17.08;10.77;;;6.20;99.90;;;;;;5072232;28;20216;-77
2022/11/26 03:45:20;;;;;;;13.35;9.55;;;6.20;99.90;;;;;;5074915;28;20708;-77
2022/11/26 03:48:06;;;;;;;17.10;10.52;;;6.30;99.90;;;;;;5062402;28;20266;-77
2022/11/26 03:50:52;;;;;;;14.55;9.30;;;6.30;99.90;;;;;;5067629;28;20688;-77
2022/11/26 03:53:38;;;;;;;17.43;10.27;;;6.30;99.90;;;;;;5066978;28;20246;-77
2022/11/26 03:56:24;;;;;;;15.95;9.82;;;6.30;99.90;;;;;;5067660;28;20472;-77
2022/11/26 03:59:10;;;;;;;16.40;9.35;;;6.20;99.90;;;;;;5066484;28;20687;-76
2022/11/26 04:01:56;;;;;;;19.98;11.23;;;6.10;99.90;;;;;;5067813;28;20266;-77
2022/11/26 04:04:42;;;;;;;14.40;9.07;;;6.20;99.90;;;;;;5068679;28;20204;-76
2022/11/26 04:07:27;;;;;;;16.42;10.20;;;6.00;99.90;;;;;;5062778;28;20247;-77
2022/11/26 04:10:14;;;;;;;13.10;8.50;;;6.00;99.90;;;;;;5069358;28;20197;-77
2022/11/26 04:12:59;;;;;;;14.67;10.90;;;6.10;99.90;;;;;;5064312;28;20807;-77
2022/11/26 04:15:45;;;;;;;17.30;11.30;;;6.10;99.90;;;;;;5069702;28;20423;-77
2022/11/26 04:18:31;;;;;;;14.57;10.73;;;6.20;99.90;;;;;;5063846;28;20220;-77
2022/11/26 04:21:17;;;;;;;16.98;9.73;;;6.10;99.90;;;;;;5079347;28;20575;-77
2022/11/26 04:24:02;;;;;;;20.17;9.35;;;6.00;99.90;;;;;;5065521;28;20223;-77
2022/11/26 04:26:49;;;;;;;18.02;8.43;;;6.00;99.90;;;;;;5064014;28;20208;-76
2022/11/26 04:29:36;;;;;;;16.50;9.82;;;5.80;99.90;;;;;;5066497;28;20203;-75
2022/11/26 04:32:21;;;;;;;12.18;9.02;;;5.90;99.90;;;;;;5061517;28;20204;-76
2022/11/26 04:35:08;;;;;;;11.98;8.68;;;5.80;99.90;;;;;;5067731;28;20203;-74
2022/11/26 04:37:54;;;;;;;17.58;8.63;;;5.70;99.90;;;;;;5056635;28;20236;-76
2022/11/26 04:40:40;;;;;;;13.07;7.43;;;5.60;99.90;;;;;;5065257;28;20246;-76
2022/11/26 04:43:27;;;;;;;17.73;7.63;;;5.70;99.90;;;;;;5068500;28;20205;-77
2022/11/26 04:46:12;;;;;;;13.82;8.13;;;5.70;99.90;;;;;;5064844;28;20576;-74
2022/11/26 04:48:58;;;;;;;11.07;7.22;;;5.50;99.90;;;;;;5066026;28;20572;-76
2022/11/26 04:51:43;;;;;;;11.95;5.65;;;5.40;99.90;;;;;;5069161;28;20345;-76
2022/11/26 04:54:29;;;;;;;9.63;5.40;;;5.40;99.90;;;;;;5067262;28;20196;-77
2022/11/26 04:57:15;;;;;;;11.63;6.43;;;5.30;99.90;;;;;;5064579;28;20351;-77
2022/11/26 05:00:01;;;;;;;9.65;6.00;;;5.30;99.90;;;;;;5069067;28;20712;-76
2022/11/26 05:02:47;;;;;;;11.80;5.70;;;5.10;99.90;;;;;;5064618;28;20575;-77
2022/11/26 05:05:33;;;;;;;9.82;6.28;;;5.00;99.90;;;;;;5064154;28;20238;-77
2022/11/26 05:08:19;;;;;;;8.68;5.78;;;5.00;99.90;;;;;;5065563;28;20313;-77
2022/11/26 05:11:04;;;;;;;8.15;5.97;;;4.90;99.90;;;;;;5071027;28;20246;-76
2022/11/26 05:13:50;;;;;;;8.75;5.40;;;4.90;99.90;;;;;;5076906;28;20197;-76
2022/11/26 05:16:37;;;;;;;12.32;5.15;;;4.80;99.90;;;;;;5064904;28;20303;-77
2022/11/26 05:19:22;;;;;;;11.35;6.10;;;4.90;99.90;;;;;;5067130;28;20294;-74
2022/11/26 05:22:08;;;;;;;8.57;6.60;;;5.00;99.90;;;;;;5068924;28;20343;-77
2022/11/26 05:24:53;;;;;;;9.38;5.75;;;4.90;99.90;;;;;;5069380;28;20243;-76
2022/11/26 05:27:39;;;;;;;8.73;5.93;;;4.90;99.90;;;;;;5066925;28;20220;-77
2022/11/26 05:30:25;;;;;;;10.38;5.43;;;5.00;99.90;;;;;;5075465;28;20668;-75
2022/11/26 05:33:11;;;;;;;6.65;4.90;;;5.00;99.90;;;;;;5065302;28;20354;-77
2022/11/26 05:35:57;;;;;;;8.43;5.82;;;5.00;99.90;;;;;;5060254;28;20205;-75
2022/11/26 05:38:43;;;;;;;9.10;6.15;;;4.90;99.90;;;;;;5065157;28;20284;-77
2022/11/26 05:41:28;;;;;;;10.18;6.32;;;4.70;99.90;;;;;;5071614;28;20777;-77
2022/11/26 05:44:14;;;;;;;14.95;5.78;;;4.80;99.90;;;;;;5069160;28;20247;-76
2022/11/26 05:46:59;;;;;;;16.13;6.88;;;4.80;99.90;;;;;;5068125;28;20228;-76
2022/11/26 05:49:46;;;;;;;11.45;7.47;;;4.90;99.90;;;;;;5070800;28;20204;-77
2022/11/26 05:52:31;;;;;;;17.70;8.18;;;4.90;99.90;;;;;;5072982;28;20334;-76
2022/11/26 05:55:18;;;;;;;18.05;8.40;;;4.80;99.90;;;;;;5064482;28;20209;-77
2022/11/26 05:58:03;;;;;;;17.25;10.07;;;4.90;99.90;;;;;;5068190;28;20265;-76
2022/11/26 06:00:49;;;;;;;20.00;10.50;;;5.00;99.90;;;;;;5068301;28;20242;-76
2022/11/26 06:03:35;;;;;;;17.73;9.52;;;5.00;99.90;;;;;;5067855;28;20342;-77
2022/11/26 06:06:22;;;;;;;37.92;10.07;;;4.80;99.90;;;;;;5060985;28;20242;-77
2022/11/26 06:09:07;;;;;;;35.42;11.00;;;4.80;99.90;;;;;;5068591;28;20204;-77
2022/11/26 06:11:53;;;;;;;15.63;10.75;;;4.80;99.90;;;;;;5068649;28;20259;-77
2022/11/26 06:14:38;;;;;;;16.85;11.05;;;5.00;99.90;;;;;;5064119;28;20603;-75
2022/11/26 06:17:24;;;;;;;21.88;9.50;;;5.10;99.90;;;;;;5077530;28;20242;-77
2022/11/26 06:20:10;;;;;;;30.83;11.40;;;5.20;99.90;;;;;;5067810;28;20266;-77
2022/11/26 06:22:57;;;;;;;29.92;9.48;;;5.20;99.90;;;;;;5072685;28;20358;-76
2022/11/26 06:25:43;;;;;;;48.90;10.52;;;5.30;99.90;;;;;;5058417;28;20260;-76
2022/11/26 06:28:29;;;;;;;36.10;9.70;;;5.30;99.90;;;;;;5069714;28;20343;-76
2022/11/26 06:31:14;;;;;;;61.33;10.35;;;5.40;99.90;;;;;;5067322;28;20784;-77
2022/11/26 06:34:00;;;;;;;93.25;11.73;;;5.30;99.90;;;;;;5065998;28;20196;-76
2022/11/26 06:36:45;;;;;;;50.90;10.35;;;5.20;99.90;;;;;;5065984;28;20563;-76
2022/11/26 06:39:32;;;;;;;19.40;10.15;;;5.20;99.90;;;;;;5066261;28;20216;-76
2022/11/26 06:42:18;;;;;;;32.05;9.88;;;5.30;99.90;;;;;;5069059;28;20196;-76
2022/11/26 06:45:04;;;;;;;39.85;10.52;;;5.30;99.90;;;;;;5064909;28;20335;-77
2022/11/26 06:47:51;;;;;;;32.03;10.20;;;5.20;99.90;;;;;;5078353;28;20650;-77
2022/11/26 06:50:36;;;;;;;95.53;11.98;;;5.20;99.90;;;;;;5060303;28;20692;-77
2022/11/26 06:53:22;;;;;;;44.17;9.95;;;5.10;99.90;;;;;;5066649;28;20208;-76
2022/11/26 06:56:13;;;;;;;19.77;10.88;;;5.00;99.90;;;;;;5074226;28;20203;-76
2022/11/26 06:58:58;;;;;;;26.73;10.57;;;5.00;99.90;;;;;;5070992;28;20306;-77
2022/11/26 07:01:44;;;;;;;30.35;10.50;;;5.10;99.90;;;;;;5075743;28;20259;-77
2022/11/26 07:04:29;;;;;;;33.15;9.40;;;5.20;99.90;;;;;;5065910;28;20789;-75
2022/11/26 07:07:15;;;;;;;19.35;9.50;;;5.30;99.90;;;;;;5071802;28;20224;-77
2022/11/26 07:10:01;;;;;;;11.27;9.10;;;5.40;99.90;;;;;;5071267;28;20196;-77
2022/11/26 07:12:48;;;;;;;62.83;9.60;;;5.40;99.90;;;;;;5070533;28;20208;-77
2022/11/26 07:15:34;;;;;;;42.88;9.57;;;5.50;99.90;;;;;;5071378;28;20199;-77
2022/11/26 07:18:19;;;;;;;28.87;9.80;;;5.50;99.90;;;;;;5084893;28;20224;-76
2022/11/26 07:21:06;;;;;;;64.22;10.85;;;5.50;99.90;;;;;;5077016;28;20797;-76
2022/11/26 07:23:52;;;;;;;85.47;10.43;;;5.60;99.90;;;;;;5065890;28;20205;-75
2022/11/26 07:26:37;;;;;;;40.13;10.63;;;5.50;99.90;;;;;;5078506;28;20686;-77
2022/11/26 07:29:25;;;;;;;47.28;11.88;;;5.50;99.90;;;;;;5070334;28;20199;-77
2022/11/26 07:32:10;;;;;;;58.65;12.20;;;5.50;99.90;;;;;;5074759;28;20203;-77
2022/11/26 07:34:56;;;;;;;51.65;14.20;;;5.60;99.90;;;;;;5065652;28;20200;-77
2022/11/26 07:37:41;;;;;;;59.92;12.25;;;5.60;99.90;;;;;;5080396;22;20588;-73
2022/11/26 07:40:27;;;;;;;85.63;24.02;;;5.50;99.90;;;;;;5054485;28;20212;-75
2022/11/26 07:43:12;;;;;;;45.30;18.83;;;5.50;99.90;;;;;;5055744;28;20340;-73
2022/11/26 07:46:01;;;;;;;52.45;16.65;;;5.50;99.90;;;;;;5053010;28;20773;-73
2022/11/26 07:48:47;;;;;;;19.77;13.75;;;5.60;99.90;;;;;;5077444;28;20216;-74
2022/11/26 07:51:35;;;;;;;32.78;13.35;;;5.60;99.90;;;;;;5069307;28;20262;-73
2022/11/26 07:54:21;;;;;;;38.75;12.70;;;5.60;99.90;;;;;;5069355;28;20641;-73
2022/11/26 07:57:06;;;;;;;35.42;11.35;;;5.60;99.90;;;;;;5081516;28;20278;-73
2022/11/26 07:59:52;;;;;;;20.67;10.13;;;5.70;99.90;;;;;;5087462;28;20221;-74
2022/11/26 08:02:39;;;;;;;14.23;9.52;;;5.70;99.90;;;;;;5079047;28;20293;-73
2022/11/26 08:05:24;;;;;;;18.17;11.00;;;5.70;99.90;;;;;;5071640;28;20204;-73
2022/11/26 08:08:11;;;;;;;23.98;15.18;;;5.80;99.90;;;;;;5085723;28;20247;-73
2022/11/26 08:10:56;;;;;;;20.77;15.93;;;5.70;99.90;;;;;;5080498;28;20203;-73
2022/11/26 08:13:43;;;;;;;21.52;16.33;;;5.80;99.90;;;;;;5064844;28;20667;-74
2022/11/26 08:16:28;;;;;;;21.80;15.68;;;5.80;99.90;;;;;;5089761;28;20199;-73
2022/11/26 08:19:15;;;;;;;32.38;16.30;;;5.80;99.90;;;;;;5083527;28;20232;-73
2022/11/26 08:22:01;;;;;;;24.33;18.80;;;5.80;99.90;;;;;;5073320;28;20311;-73
2022/11/26 08:24:46;;;;;;;48.35;18.88;;;5.80;99.90;;;;;;5061914;28;20449;-73
2022/11/26 08:27:32;;;;;;;26.90;17.25;;;5.80;99.90;;;;;;5080494;28;20293;-73
2022/11/26 08:30:18;;;;;;;23.83;16.25;;;5.80;99.90;;;;;;5070430;28;20192;-73
2022/11/26 08:33:04;;;;;;;22.48;13.65;;;5.80;99.90;;;;;;5076036;28;20207;-73
2022/11/26 08:35:54;;;;;;;50.88;15.02;;;5.80;99.90;;;;;;5081109;28;20207;-73
2022/11/26 08:38:40;;;;;;;27.23;13.40;;;5.90;99.90;;;;;;5083753;28;20312;-74
2022/11/26 08:41:25;;;;;;;33.50;15.88;;;5.90;99.90;;;;;;5092835;28;20683;-73
2022/11/26 08:44:10;;;;;;;48.80;17.35;;;5.90;99.90;;;;;;5073253;28;20285;-73
2022/11/26 08:46:56;;;;;;;45.58;19.77;;;5.90;99.90;;;;;;5089564;28;20590;-73
2022/11/26 08:49:42;;;;;;;50.42;16.10;;;5.90;99.90;;;;;;5090330;28;20551;-73
2022/11/26 08:52:29;;;;;;;51.85;17.05;;;6.00;99.90;;;;;;5072218;28;20270;-73
2022/11/26 08:55:14;;;;;;;71.15;16.38;;;6.00;99.90;;;;;;5092893;28;20302;-73
2022/11/26 08:58:00;;;;;;;37.00;17.85;;;6.10;99.90;;;;;;5085424;28;20357;-73
2022/11/26 09:00:45;;;;;;;50.25;17.08;;;6.20;99.90;;;;;;5086391;28;20220;-73
2022/11/26 09:03:31;;;;;;;68.07;16.58;;;6.20;99.90;;;;;;5065632;28;20626;-73
2022/11/26 09:06:18;;;;;;;73.03;15.45;;;6.30;99.90;;;;;;5080876;28;20204;-73
2022/11/26 09:09:12;;;;;;;21.75;14.93;;;6.30;99.90;;;;;;5080660;28;20220;-73
2022/11/26 09:11:59;;;;;;;43.75;14.35;;;6.40;99.90;;;;;;5076684;28;20645;-73
2022/11/26 09:14:44;;;;;;;40.95;14.82;;;6.50;99.90;;;;;;5084605;28;20868;-73
2022/11/26 09:17:30;;;;;;;32.67;13.73;;;6.50;99.90;;;;;;5075232;28;20219;-74
2022/11/26 09:20:16;;;;;;;22.05;13.55;;;6.50;99.90;;;;;;5093473;28;20515;-73
2022/11/26 09:23:01;;;;;;;22.15;13.73;;;6.60;99.90;;;;;;5069695;28;20263;-73
2022/11/26 09:25:49;;;;;;;40.95;12.70;;;6.60;99.90;;;;;;5079434;28;20203;-73
2022/11/26 09:28:35;;;;;;;54.67;14.02;;;6.70;99.90;;;;;;5081452;28;20227;-73
2022/11/26 09:31:20;;;;;;;29.60;13.40;;;6.70;99.90;;;;;;5091776;28;20273;-75
2022/11/26 09:34:06;;;;;;;54.55;15.40;;;6.80;99.90;;;;;;5064967;28;20396;-73
2022/11/26 09:36:52;;;;;;;34.53;15.30;;;6.80;99.90;;;;;;5088502;28;20222;-73
2022/11/26 09:39:37;;;;;;;32.03;14.30;;;6.80;99.90;;;;;;5092854;28;20226;-73
2022/11/26 09:42:36;;;;;;;50.95;14.57;;;6.90;99.90;;;;;;5067659;28;20318;-74
2022/11/26 09:45:34;;;;;;;32.83;14.30;;;6.90;99.90;;;;;;5089013;28;20262;-74
2022/11/26 09:48:24;;;;;;;30.58;15.73;;;7.10;99.90;;;;;;5083514;28;20442;-73
2022/11/26 09:51:16;;;;;;;87.25;17.02;;;7.10;99.90;;;;;;5071390;28;20220;-73
2022/11/26 09:54:04;;;;;;;30.57;17.90;;;7.10;99.90;;;;;;5082367;28;20203;-73
2022/11/26 09:56:55;;;;;;;25.35;15.82;;;7.10;99.90;;;;;;5084061;28;20821;-74
2022/11/26 09:59:44;;;;;;;42.33;15.10;;;7.10;99.90;;;;;;5078117;28;20223;-73
2022/11/26 10:02:30;;;;;;;29.65;16.33;;;7.10;99.90;;;;;;5065696;28;20204;-73
2022/11/26 10:05:16;;;;;;;48.27;15.10;;;7.10;99.90;;;;;;5092969;28;20664;-74
2022/11/26 10:08:10;;;;;;;44.57;18.07;;;7.20;99.90;;;;;;5085417;28;20458;-74
2022/11/26 10:10:58;;;;;;;33.90;17.70;;;7.30;99.90;;;;;;5078960;28;20499;-73
2022/11/26 10:13:50;;;;;;;52.72;17.40;;;7.30;99.90;;;;;;5076927;28;20489;-74
2022/11/26 10:16:43;;;;;;;45.10;21.27;;;7.30;99.90;;;;;;5087003;28;20742;-73
2022/11/26 10:19:42;;;;;;;37.55;19.67;;;7.40;99.90;;;;;;5078667;28;20294;-73
2022/11/26 10:22:32;;;;;;;30.23;19.20;;;7.50;99.90;;;;;;5062367;28;20272;-73
2022/11/26 10:25:20;;;;;;;29.67;19.53;;;7.60;99.90;;;;;;5085387;28;20431;-74
2022/11/26 10:28:19;;;;;;;27.88;19.92;;;7.70;99.90;;;;;;5085586;28;20448;-73
2022/11/26 10:31:12;;;;;;;24.47;19.17;;;7.80;99.90;;;;;;5080455;28;20543;-74
2022/11/26 10:34:02;;;;;;;23.57;16.90;;;8.10;99.90;;;;;;5083660;28;20778;-73
2022/11/26 10:36:48;;;;;;;24.73;18.20;;;8.30;99.90;;;;;;5084129;28;20804;-73
2022/11/26 10:39:34;;;;;;;21.10;17.63;;;8.70;99.90;;;;;;5079057;28;20396;-73
2022/11/26 10:42:22;;;;;;;25.83;17.30;;;9.00;99.90;;;;;;5065799;28;20196;-73
2022/11/26 10:45:18;;;;;;;27.73;20.20;;;9.00;99.90;;;;;;5087237;28;20568;-73
2022/11/26 10:48:22;;;;;;;22.90;18.30;;;9.00;99.90;;;;;;5089517;28;20862;-73
2022/11/26 10:51:15;;;;;;;26.50;19.00;;;8.90;99.90;;;;;;5069187;28;20534;-73
2022/11/26 10:54:04;;;;;;;32.50;17.07;;;9.00;99.90;;;;;;5078346;28;20445;-74
2022/11/26 10:56:52;;;;;;;24.57;15.57;;;9.10;99.90;;;;;;5080420;28;20944;-73
2022/11/26 10:59:40;;;;;;;29.37;16.53;;;9.10;99.90;;;;;;5077402;28;20442;-74
2022/11/26 11:02:30;;;;;;;29.00;15.35;;;9.30;99.90;;;;;;5070070;28;20441;-73
2022/11/26 11:05:20;;;;;;;21.37;14.00;;;9.40;99.90;;;;;;5081715;28;20689;-73
2022/11/26 11:08:13;;;;;;;26.37;11.40;;;9.50;99.90;;;;;;5088041;28;20548;-74
2022/11/26 11:11:01;;;;;;;16.50;8.83;;;9.50;99.90;;;;;;5068989;28;20443;-74
2022/11/26 11:13:47;;;;;;;21.03;9.57;;;9.40;99.90;;;;;;5084925;28;20942;-73
2022/11/26 11:16:40;;;;;;;20.80;12.77;;;9.30;99.90;;;;;;5078973;28;20423;-73
2022/11/26 11:19:26;;;;;;;20.50;11.03;;;9.20;99.90;;;;;;5073654;28;20501;-74
2022/11/26 11:22:18;;;;;;;22.47;9.63;;;9.10;99.90;;;;;;5066000;28;20435;-73
2022/11/26 11:25:20;;;;;;;26.30;10.83;;;9.00;99.90;;;;;;5084216;28;21005;-75
2022/11/26 11:28:13;;;;;;;21.53;10.70;;;9.00;99.90;;;;;;5087699;28;20420;-74
2022/11/26 11:31:06;;;;;;;33.97;14.77;;;9.00;99.90;;;;;;5066752;28;20936;-73
2022/11/26 11:33:52;;;;;;;20.27;13.57;;;8.90;99.90;;;;;;5070983;28;20390;-73
2022/11/26 11:36:38;;;;;;;15.73;13.20;;;8.90;99.90;;;;;;5087868;28;20408;-73
2022/11/26 11:39:29;;;;;;;30.37;13.60;;;8.90;99.90;;;;;;5073036;28;20458;-73
2022/11/26 11:42:22;;;;;;;38.13;14.20;;;8.80;99.90;;;;;;5080535;28;20422;-74
2022/11/26 11:45:22;;;;;;;33.43;14.97;;;8.80;99.90;;;;;;5082568;28;20519;-74
2022/11/26 11:48:19;;;;;;;27.80;14.17;;;8.80;99.90;;;;;;5084451;28;20454;-74
2022/11/26 11:51:13;;;;;;;23.93;14.57;;;8.90;99.90;;;;;;5063083;28;21045;-74
2022/11/26 11:54:10;;;;;;;27.57;14.57;;;8.90;99.90;;;;;;5088451;28;20981;-74
2022/11/26 11:57:06;;;;;;;41.03;17.43;;;8.80;99.90;;;;;;5081276;28;20426;-74
2022/11/26 12:00:12;;;;;;;35.10;21.13;;;8.70;99.90;;;;;;5079594;28;20452;-73
2022/11/26 12:03:42;;;;;;;31.93;17.53;;;8.70;99.90;;;;;;5076840;28;20437;-74
2022/11/26 12:06:38;;;;;;;32.50;17.55;;;8.70;99.90;;;;;;5089707;28;20980;-74
2022/11/26 12:09:32;;;;;;;34.27;17.73;;;8.70;99.90;;;;;;5069978;28;20204;-74
2022/11/26 12:12:22;;;;;;;29.15;17.73;;;8.70;99.90;;;;;;5079946;28;20396;-74
2022/11/26 12:15:17;;;;;;;33.00;18.00;;;8.70;99.90;;;;;;5083954;28;20327;-73
2022/11/26 12:18:13;;;;;;;45.35;27.50;;;8.60;99.90;;;;;;5086232;28;20418;-74
2022/11/26 12:21:05;;;;;;;33.77;19.60;;;8.70;99.90;;;;;;5071414;28;20345;-74
2022/11/26 12:23:56;;;;;;;40.77;20.07;;;8.80;99.90;;;;;;5071405;28;20439;-74
2022/11/26 12:26:48;;;;;;;41.47;22.20;;;8.60;99.90;;;;;;5080987;28;20432;-75
2022/11/26 12:29:40;;;;;;;42.77;20.07;;;8.60;99.90;;;;;;5076577;28;20442;-74
2022/11/26 12:32:34;;;;;;;30.07;18.33;;;8.60;99.90;;;;;;5077435;28;20430;-74
2022/11/26 12:35:27;;;;;;;29.13;16.80;;;8.50;99.90;;;;;;5078581;28;20487;-74
2022/11/26 12:38:18;;;;;;;28.00;18.20;;;8.50;99.90;;;;;;5085344;28;20962;-74
2022/11/26 12:41:09;;;;;;;47.00;22.23;;;8.60;99.90;;;;;;5070422;28;20825;-74
2022/11/26 12:44:01;;;;;;;42.20;21.50;;;8.50;99.90;;;;;;5081712;28;20429;-74
2022/11/26 12:46:52;;;;;;;37.03;18.47;;;8.60;99.90;;;;;;5091146;28;20433;-74
2022/11/26 12:49:45;;;;;;;40.73;16.30;;;8.60;99.90;;;;;;5065586;28;20977;-73
2022/11/26 12:52:38;;;;;;;31.43;21.23;;;8.50;99.90;;;;;;5071385;28;20932;-74
2022/11/26 12:55:28;;;;;;;45.20;22.80;;;8.60;99.90;;;;;;5093844;28;20572;-73
2022/11/26 12:58:18;;;;;;;38.10;21.10;;;8.50;99.90;;;;;;5084432;28;20721;-76
2022/11/26 13:01:03;;;;;;;39.03;20.93;;;8.50;99.90;;;;;;5068597;28;20770;-74
2022/11/26 13:03:50;;;;;;;23.70;15.57;;;8.40;99.90;;;;;;5072040;28;20506;-74
2022/11/26 13:06:52;;;;;;;38.57;17.07;;;8.40;99.90;;;;;;5074950;28;20433;-74
2022/11/26 13:10:03;;;;;;;32.40;20.80;;;8.40;99.90;;;;;;5064555;28;20910;-74
2022/11/26 13:12:56;;;;;;;32.80;19.50;;;8.40;99.90;;;;;;5069736;28;20459;-73
2022/11/26 13:15:46;;;;;;;29.63;18.90;;;8.40;99.90;;;;;;5065024;28;20497;-74
2022/11/26 13:18:35;;;;;;;32.10;18.67;;;8.40;99.90;;;;;;5066363;28;20965;-73
2022/11/26 13:21:40;;;;;;;37.58;19.63;;;8.30;99.90;;;;;;5065483;28;20544;-73
2022/11/26 13:24:50;;;;;;;35.03;19.30;;;8.20;99.90;;;;;;5070152;28;20349;-73
2022/11/26 13:27:52;;;;;;;36.10;18.60;;;8.00;99.90;;;;;;5072191;28;20216;-74
2022/11/26 13:30:50;;;;;;;37.20;19.40;;;7.90;99.90;;;;;;5069626;28;20494;-74
2022/11/26 13:33:56;;;;;;;29.37;18.17;;;7.80;99.90;;;;;;5072972;28;20947;-74
2022/11/26 13:37:01;;;;;;;33.33;17.70;;;7.80;99.90;;;;;;5083394;28;20427;-74
2022/11/26 13:40:34;;;;;;;32.20;19.45;;;7.90;99.90;;;;;;5057874;22;20302;-74
2022/11/26 13:44:17;;;;;;;34.20;19.20;;;8.00;99.90;;;;;;5053152;28;20206;-76
2022/11/26 13:47:08;;;;;;;26.30;16.93;;;8.00;99.90;;;;;;4976719;28;20518;-75
2022/11/26 13:50:01;;;;;;;30.87;17.20;;;8.00;99.90;;;;;;5044617;28;20606;-76
2022/11/26 13:52:50;;;;;;;25.33;17.27;;;7.90;99.90;;;;;;5049868;28;20409;-76
2022/11/26 13:55:42;;;;;;;28.73;16.50;;;7.90;99.90;;;;;;5042836;28;20440;-76
2022/11/26 13:58:31;;;;;;;28.00;16.27;;;8.00;99.90;;;;;;5050496;28;21005;-76
2022/11/26 14:01:38;;;;;;;23.43;14.40;;;8.00;99.90;;;;;;5057179;28;20470;-75
2022/11/26 14:04:53;;;;;;;26.53;16.03;;;8.10;99.90;;;;;;5060060;28;20769;-77
2022/11/26 14:07:40;;;;;;;26.73;16.80;;;8.20;99.90;;;;;;5047172;28;20430;-74
2022/11/26 14:10:43;;;;;;;36.70;16.53;;;8.20;99.90;;;;;;5047536;28;20560;-75
2022/11/26 14:13:28;;;;;;;32.37;15.00;;;8.20;99.90;;;;;;5045435;28;20507;-76
2022/11/26 14:16:14;;;;;;;32.97;16.63;;;8.10;99.90;;;;;;5049678;28;20799;-76
2022/11/26 14:19:00;;;;;;;39.40;16.23;;;8.20;99.90;;;;;;5043988;28;21051;-77
2022/11/26 14:22:02;;;;;;;25.87;15.77;;;8.20;99.90;;;;;;5053679;28;20470;-75
2022/11/26 14:24:57;;;;;;;26.00;14.30;;;8.30;99.90;;;;;;5046054;28;20434;-77
2022/11/26 14:27:54;;;;;;;21.80;12.23;;;8.20;99.90;;;;;;5040380;28;20448;-76
2022/11/26 14:30:39;;;;;;;14.60;9.30;;;8.20;99.90;;;;;;5053968;28;20425;-77
2022/11/26 14:33:29;;;;;;;20.40;9.00;;;8.30;99.90;;;;;;5054108;28;20998;-75
2022/11/26 14:36:21;;;;;;;14.93;8.00;;;8.20;99.90;;;;;;5059075;28;20427;-75